createdAt,value
2018-09-20T00:02:13.364Z,101170.45
2018-09-20T00:04:41.625Z,101172.16
2018-09-20T00:07:09.971Z,101170.36
2018-09-20T00:09:38.241Z,101164.27
2018-09-20T00:12:06.574Z,101158.29
2018-09-20T00:14:34.892Z,101156.81
2018-09-20T00:17:03.173Z,101156.81
2018-09-20T00:19:31.484Z,101159.00
2018-09-20T00:21:59.791Z,101157.52
2018-09-20T00:24:28.227Z,101149.70
2018-09-20T00:26:56.553Z,101149.39
2018-09-20T00:29:25.215Z,101146.73
2018-09-20T00:31:53.556Z,101145.59
2018-09-20T00:34:21.835Z,101143.61
2018-09-20T00:36:50.314Z,101137.63
2018-09-20T00:39:18.641Z,101137.68
2018-09-20T00:41:46.940Z,101132.05
2018-09-20T00:44:15.274Z,101130.05
2018-09-20T00:46:43.589Z,101134.09
2018-09-20T00:49:11.939Z,101127.64
2018-09-20T00:51:40.295Z,101130.47
2018-09-20T00:54:08.628Z,101127.30
2018-09-20T00:56:36.953Z,101128.31
2018-09-20T00:59:05.473Z,101126.48
2018-09-20T01:01:33.817Z,101124.33
2018-09-20T01:04:02.159Z,101128.68
2018-09-20T01:06:30.482Z,101124.73
2018-09-20T01:08:58.764Z,101126.62
2018-09-20T01:11:27.218Z,101128.63
2018-09-20T01:13:55.504Z,101126.33
2018-09-20T01:16:23.855Z,101129.19
2018-09-20T01:18:52.342Z,101130.17
2018-09-20T01:21:20.673Z,101127.76
2018-09-20T01:23:49.005Z,101132.61
2018-09-20T01:26:18.105Z,101130.62
2018-09-20T01:28:46.496Z,101134.98
2018-09-20T01:31:14.786Z,101125.02
2018-09-20T01:33:43.083Z,101131.52
2018-09-20T01:36:12.351Z,101132.58
2018-09-20T01:38:40.652Z,101133.30
2018-09-20T01:41:08.981Z,101125.67
2018-09-20T01:43:37.284Z,101132.05
2018-09-20T01:46:06.013Z,101133.06
2018-09-20T01:48:34.281Z,101132.28
2018-09-20T01:51:02.579Z,101135.10
2018-09-20T01:53:30.957Z,101132.32
2018-09-20T01:55:59.276Z,101132.17
2018-09-20T01:58:27.619Z,101133.19
2018-09-20T02:00:55.866Z,101133.22
2018-09-20T02:03:24.265Z,101127.47
2018-09-20T02:05:52.561Z,101125.98
2018-09-20T02:08:21.005Z,101129.66
2018-09-20T02:10:49.310Z,101128.02
2018-09-20T02:13:17.927Z,101131.84
2018-09-20T02:15:46.239Z,101135.98
2018-09-20T02:18:14.534Z,101142.31
2018-09-20T02:20:42.910Z,101141.33
2018-09-20T02:23:11.231Z,101138.86
2018-09-20T02:25:39.612Z,101145.00
2018-09-20T02:28:08.030Z,101143.52
2018-09-20T02:31:16.306Z,101138.20
2018-09-20T02:33:44.626Z,101135.07
2018-09-20T02:36:12.928Z,101134.91
2018-09-20T02:38:41.529Z,101143.23
2018-09-20T02:41:10.424Z,101140.57
2018-09-20T02:43:38.792Z,101141.27
2018-09-20T02:46:07.124Z,101139.46
2018-09-20T02:48:35.508Z,101141.27
2018-09-20T02:51:03.893Z,101142.30
2018-09-20T02:53:32.357Z,101143.30
2018-09-20T02:56:00.663Z,101140.02
2018-09-20T02:58:29.007Z,101135.02
2018-09-20T03:00:57.279Z,101129.90
2018-09-20T03:03:25.835Z,101132.20
2018-09-20T03:05:54.147Z,101136.88
2018-09-20T03:08:22.482Z,101126.28
2018-09-20T03:10:50.786Z,101125.42
2018-09-20T03:13:19.078Z,101131.27
2018-09-20T03:15:47.345Z,101125.29
2018-09-20T03:18:15.684Z,101129.94
2018-09-20T03:20:44.024Z,101125.64
2018-09-20T03:23:12.419Z,101127.81
2018-09-20T03:25:40.720Z,101130.30
2018-09-20T03:28:09.075Z,101127.17
2018-09-20T03:30:37.451Z,101132.31
2018-09-20T03:33:06.017Z,101116.73
2018-09-20T03:35:34.380Z,101125.86
2018-09-20T03:38:02.686Z,101127.05
2018-09-20T03:40:31.035Z,101129.69
2018-09-20T03:42:59.327Z,101123.05
2018-09-20T03:45:27.631Z,101128.06
2018-09-20T03:47:55.945Z,101124.58
2018-09-20T03:50:24.273Z,101126.91
2018-09-20T03:52:52.595Z,101133.22
2018-09-20T03:55:20.934Z,101129.56
2018-09-20T03:57:49.262Z,101130.73
2018-09-20T04:00:17.555Z,101127.73
2018-09-20T04:02:45.895Z,101131.58
2018-09-20T04:05:14.222Z,101126.11
2018-09-20T04:07:42.593Z,101130.59
2018-09-20T04:10:10.951Z,101127.45
2018-09-20T04:12:39.521Z,101126.11
2018-09-20T04:15:08.049Z,101123.31
2018-09-20T04:17:36.357Z,101120.31
2018-09-20T04:20:05.240Z,101123.31
2018-09-20T04:22:33.584Z,101118.82
2018-09-20T04:25:01.956Z,101125.45
2018-09-20T04:27:30.215Z,101129.58
2018-09-20T04:29:58.591Z,101127.44
2018-09-20T04:32:26.905Z,101123.95
2018-09-20T04:34:55.182Z,101128.44
2018-09-20T04:37:23.537Z,101122.33
2018-09-20T04:39:51.843Z,101124.96
2018-09-20T04:42:20.208Z,101126.47
2018-09-20T04:44:48.570Z,101126.47
2018-09-20T04:47:16.852Z,101134.25
2018-09-20T04:49:45.265Z,101131.13
2018-09-20T04:52:13.552Z,101129.30
2018-09-20T04:54:41.882Z,101132.27
2018-09-20T04:57:10.275Z,101137.25
2018-09-20T04:59:39.221Z,101132.28
2018-09-20T05:02:07.579Z,101132.61
2018-09-20T05:04:35.959Z,101132.44
2018-09-20T05:07:04.264Z,101134.26
2018-09-20T05:09:32.696Z,101129.31
2018-09-20T05:12:00.949Z,101124.64
2018-09-20T05:14:29.253Z,101124.96
2018-09-20T05:16:57.515Z,101121.48
2018-09-20T05:19:25.883Z,101114.70
2018-09-20T05:21:54.185Z,101122.64
2018-09-20T05:24:22.453Z,101128.78
2018-09-20T05:26:57.524Z,101128.94
2018-09-20T05:29:25.925Z,101130.44
2018-09-20T05:31:54.243Z,101130.92
2018-09-20T05:34:22.504Z,101127.25
2018-09-20T05:36:50.840Z,101131.38
2018-09-20T05:39:19.143Z,101125.58
2018-09-20T05:41:48.121Z,101126.38
2018-09-20T05:44:16.458Z,101119.41
2018-09-20T05:46:44.831Z,101119.70
2018-09-20T05:49:13.156Z,101120.66
2018-09-20T05:51:41.526Z,101123.45
2018-09-20T05:54:09.821Z,101115.31
2018-09-20T05:56:38.376Z,101121.92
2018-09-20T05:59:06.699Z,101129.07
2018-09-20T06:01:35.117Z,101126.23
2018-09-20T06:04:03.449Z,101123.89
2018-09-20T06:06:31.754Z,101130.00
2018-09-20T06:09:00.138Z,101125.01
2018-09-20T06:11:28.398Z,101125.64
2018-09-20T06:13:56.733Z,101130.89
2018-09-20T06:16:25.019Z,101131.69
2018-09-20T06:18:53.349Z,101125.16
2018-09-20T06:21:21.644Z,101122.63
2018-09-20T06:23:49.984Z,101126.38
2018-09-20T06:26:18.298Z,101135.30
2018-09-20T06:28:46.718Z,101121.30
2018-09-20T06:31:15.273Z,101130.37
2018-09-20T06:33:43.573Z,101135.48
2018-09-20T06:36:11.873Z,101140.41
2018-09-20T06:38:40.288Z,101138.68
2018-09-20T06:41:08.700Z,101140.30
2018-09-20T06:43:37.098Z,101140.72
2018-09-20T06:46:05.452Z,101142.49
2018-09-20T06:48:33.793Z,101137.59
2018-09-20T06:51:02.199Z,101131.17
2018-09-20T06:53:30.548Z,101138.50
2018-09-20T06:55:58.833Z,101130.07
2018-09-20T06:58:27.192Z,101128.20
2018-09-20T07:00:55.613Z,101120.69
2018-09-20T07:03:23.973Z,101129.32
2018-09-20T07:05:52.325Z,101123.15
2018-09-20T07:08:20.728Z,101124.93
2018-09-20T07:10:49.069Z,101115.09
2018-09-20T07:13:17.369Z,101112.88
2018-09-20T07:15:45.706Z,101112.48
2018-09-20T07:18:14.037Z,101108.13
2018-09-20T07:20:42.366Z,101106.45
2018-09-20T07:23:10.663Z,101104.82
2018-09-20T07:25:38.977Z,101107.66
2018-09-20T07:28:07.327Z,101109.86
2018-09-20T07:30:35.637Z,101107.87
2018-09-20T07:33:03.946Z,101100.21
2018-09-20T07:35:32.262Z,101103.86
2018-09-20T07:38:00.585Z,101105.75
2018-09-20T07:40:28.917Z,101103.29
2018-09-20T07:42:57.238Z,101102.92
2018-09-20T07:45:25.552Z,101102.86
2018-09-20T07:47:53.911Z,101101.37
2018-09-20T07:50:22.305Z,101099.57
2018-09-20T07:52:50.664Z,101097.86
2018-09-20T07:55:19.000Z,101103.83
2018-09-20T07:57:47.329Z,101104.45
2018-09-20T08:00:15.661Z,101102.39
2018-09-20T08:02:43.920Z,101106.81
2018-09-20T08:05:12.370Z,101103.86
2018-09-20T08:07:40.764Z,101103.98
2018-09-20T08:10:09.132Z,101104.09
2018-09-20T08:12:37.438Z,101109.59
2018-09-20T08:15:06.476Z,101109.34
2018-09-20T08:17:34.775Z,101116.95
2018-09-20T08:20:03.212Z,101112.09
2018-09-20T08:22:31.555Z,101117.67
2018-09-20T08:24:59.881Z,101114.67
2018-09-20T08:27:28.166Z,101118.49
2018-09-20T08:29:56.473Z,101121.47
2018-09-20T08:32:24.772Z,101117.27
2018-09-20T08:34:53.074Z,101127.06
2018-09-20T08:37:21.398Z,101123.56
2018-09-20T08:39:49.654Z,101123.45
2018-09-20T08:42:18.047Z,101122.84
2018-09-20T08:44:46.353Z,101120.50
2018-09-20T08:47:14.674Z,101124.31
2018-09-20T08:49:43.072Z,101119.18
2018-09-20T08:52:11.400Z,101127.73
2018-09-20T08:54:39.725Z,101123.20
2018-09-20T08:57:08.100Z,101118.66
2018-09-20T08:59:36.355Z,101113.61
2018-09-20T09:02:04.709Z,101114.65
2018-09-20T09:04:33.049Z,101115.69
2018-09-20T09:07:01.436Z,101118.25
2018-09-20T09:09:29.780Z,101110.92
2018-09-20T09:11:58.151Z,101100.30
2018-09-20T09:14:26.485Z,101089.36
2018-09-20T09:16:54.777Z,101104.69
2018-09-20T09:19:23.062Z,101098.39
2018-09-20T09:21:51.338Z,101096.82
2018-09-20T09:24:19.660Z,101098.03
2018-09-20T09:26:47.950Z,101100.00
2018-09-20T09:29:16.228Z,101091.84
2018-09-20T09:31:44.507Z,101097.30
2018-09-20T09:34:12.926Z,101086.34
2018-09-20T09:36:41.381Z,101088.89
2018-09-20T09:39:11.341Z,101085.62
2018-09-20T09:41:39.654Z,101075.84
2018-09-20T09:44:07.982Z,101069.09
2018-09-20T09:46:36.327Z,101072.73
2018-09-20T09:49:04.656Z,101071.63
2018-09-20T09:51:32.963Z,101064.42
2018-09-20T09:54:01.308Z,101060.12
2018-09-20T09:56:30.401Z,101061.58
2018-09-20T09:58:58.715Z,101062.33
2018-09-20T10:01:27.080Z,101057.69
2018-09-20T10:03:55.373Z,101060.37
2018-09-20T10:06:23.711Z,101052.79
2018-09-20T10:08:52.011Z,101061.10
2018-09-20T10:11:20.345Z,101050.21
2018-09-20T10:13:48.829Z,101052.38
2018-09-20T10:16:17.065Z,101045.66
2018-09-20T10:18:45.346Z,101051.61
2018-09-20T10:21:13.678Z,101045.95
2018-09-20T10:23:41.972Z,101055.56
2018-09-20T10:26:10.307Z,101038.41
2018-09-20T10:28:38.649Z,101039.80
2018-09-20T10:31:06.968Z,101046.83
2018-09-20T10:33:35.280Z,101045.02
2018-09-20T10:36:03.716Z,101031.73
2018-09-20T10:38:32.019Z,101035.45
2018-09-20T10:41:00.890Z,101050.68
2018-09-20T10:43:29.199Z,101043.09
2018-09-20T10:45:57.617Z,101037.91
2018-09-20T10:48:25.941Z,101034.94
2018-09-20T10:50:54.255Z,101034.73
2018-09-20T10:53:22.571Z,101032.07
2018-09-20T10:55:50.920Z,101020.41
2018-09-20T10:58:19.233Z,101030.83
2018-09-20T11:00:47.592Z,101028.55
2018-09-20T11:03:15.939Z,101020.84
2018-09-20T11:05:44.317Z,101020.83
2018-09-20T11:08:12.695Z,101017.19
2018-09-20T11:10:41.022Z,101015.40
2018-09-20T11:13:09.344Z,101010.98
2018-09-20T11:15:37.678Z,100999.27
2018-09-20T11:18:06.002Z,101001.95
2018-09-20T11:20:34.299Z,100997.84
2018-09-20T11:23:02.674Z,101004.34
2018-09-20T11:25:31.040Z,101015.80
2018-09-20T11:27:59.376Z,101013.62
2018-09-20T11:30:27.696Z,101004.27
2018-09-20T11:32:56.033Z,100996.59
2018-09-20T11:35:24.328Z,100992.63
2018-09-20T11:37:52.715Z,100992.39
2018-09-20T11:40:21.070Z,100992.25
2018-09-20T11:42:49.379Z,100990.48
2018-09-20T11:45:17.679Z,100998.52
2018-09-20T11:47:46.199Z,100999.16
2018-09-20T11:50:14.496Z,100995.97
2018-09-20T11:52:42.813Z,100997.14
2018-09-20T11:55:11.125Z,100994.98
2018-09-20T11:57:39.497Z,100997.67
2018-09-20T12:00:07.957Z,100998.70
2018-09-20T12:02:36.367Z,100993.74
2018-09-20T12:05:04.700Z,100988.36
2018-09-20T12:07:33.083Z,100989.24
2018-09-20T12:10:02.597Z,100982.73
2018-09-20T12:12:30.875Z,100979.86
2018-09-20T12:14:59.152Z,100986.66
2018-09-20T12:17:27.517Z,100985.59
2018-09-20T12:19:55.870Z,100986.59
2018-09-20T12:22:24.163Z,100974.12
2018-09-20T12:24:52.454Z,100981.49
2018-09-20T12:27:20.783Z,100960.96
2018-09-20T12:29:49.093Z,100965.35
2018-09-20T12:32:17.484Z,100952.36
2018-09-20T12:34:45.681Z,100951.69
2018-09-20T12:37:14.013Z,100947.93
2018-09-20T12:39:42.353Z,100944.00
2018-09-20T12:42:10.707Z,100936.28
2018-09-20T12:44:39.105Z,100933.59
2018-09-20T12:47:07.434Z,100929.55
2018-09-20T12:49:35.754Z,100926.01
2018-09-20T12:52:04.105Z,100931.67
2018-09-20T12:54:32.502Z,100934.65
2018-09-20T12:57:00.849Z,100934.47
2018-09-20T12:59:29.181Z,100921.70
2018-09-20T13:01:57.493Z,100921.14
2018-09-20T13:04:26.053Z,100919.80
2018-09-20T13:06:54.411Z,100905.21
2018-09-20T13:09:22.762Z,100908.50
2018-09-20T13:11:51.093Z,100903.93
2018-09-20T13:14:19.535Z,100897.73
2018-09-20T13:16:47.874Z,100896.39
2018-09-20T13:19:16.295Z,100890.82
2018-09-20T13:21:44.650Z,100894.58
2018-09-20T13:24:12.987Z,100897.14
2018-09-20T13:26:41.353Z,100892.11
2018-09-20T13:29:09.672Z,100895.39
2018-09-20T13:31:38.023Z,100892.73
2018-09-20T13:34:06.389Z,100884.66
2018-09-20T13:36:34.847Z,100884.84
2018-09-20T13:39:03.537Z,100886.44
2018-09-20T13:41:31.908Z,100893.30
2018-09-20T13:44:00.287Z,100884.69
2018-09-20T13:46:28.652Z,100890.35
2018-09-20T13:48:56.989Z,100886.91
2018-09-20T13:51:25.319Z,100883.22
2018-09-20T13:53:54.014Z,100881.21
2018-09-20T13:56:22.427Z,100881.83
2018-09-20T13:58:50.860Z,100874.70
2018-09-20T14:01:19.251Z,100879.11
2018-09-20T14:03:47.976Z,100874.00
2018-09-20T14:06:16.372Z,100864.09
2018-09-20T14:08:44.741Z,100867.45
2018-09-20T14:11:13.085Z,100855.27
2018-09-20T14:13:41.446Z,100845.73
2018-09-20T14:16:09.850Z,100849.20
2018-09-20T14:18:38.221Z,100836.47
2018-09-20T14:21:07.041Z,100834.02
2018-09-20T14:23:35.430Z,100836.13
2018-09-20T14:26:03.761Z,100829.81
2018-09-20T14:28:32.087Z,100827.31
2018-09-20T14:31:00.456Z,100824.91
2018-09-20T14:33:28.927Z,100822.46
2018-09-20T14:35:57.271Z,100821.36
2018-09-20T14:38:25.593Z,100820.86
2018-09-20T14:40:53.955Z,100815.67
2018-09-20T14:43:22.405Z,100807.66
2018-09-20T14:45:50.757Z,100813.37
2018-09-20T14:48:19.160Z,100811.22
2018-09-20T14:50:47.545Z,100805.24
2018-09-20T14:53:16.035Z,100798.85
2018-09-20T14:55:44.359Z,100799.92
2018-09-20T14:58:12.760Z,100792.31
2018-09-20T15:00:41.226Z,100784.72
2018-09-20T15:03:09.568Z,100781.83
2018-09-20T15:05:37.979Z,100779.14
2018-09-20T15:08:06.378Z,100776.45
2018-09-20T15:10:34.758Z,100772.94
2018-09-20T15:13:03.118Z,100769.37
2018-09-20T15:15:31.466Z,100763.66
2018-09-20T15:17:59.784Z,100760.88
2018-09-20T15:20:28.272Z,100763.80
2018-09-20T15:22:56.639Z,100762.70
2018-09-20T15:25:24.989Z,100751.34
2018-09-20T15:27:53.344Z,100756.39
2018-09-20T15:30:21.710Z,100754.48
2018-09-20T15:32:50.028Z,100748.79
2018-09-20T15:35:18.477Z,100756.24
2018-09-20T15:37:46.864Z,100745.73
2018-09-20T15:40:15.415Z,100739.00
2018-09-20T15:42:43.762Z,100744.08
2018-09-20T15:45:12.118Z,100737.88
2018-09-20T15:47:40.486Z,100736.00
2018-09-20T15:50:08.838Z,100729.25
2018-09-20T15:52:37.203Z,100733.23
2018-09-20T15:55:05.647Z,100719.77
2018-09-20T15:57:33.971Z,100725.37
2018-09-20T16:00:02.366Z,100728.85
2018-09-20T16:02:30.740Z,100722.34
2018-09-20T16:04:59.166Z,100717.44
2018-09-20T16:07:27.551Z,100713.88
2018-09-20T16:09:55.917Z,100712.78
2018-09-20T16:12:24.306Z,100708.22
2018-09-20T16:14:52.708Z,100706.15
2018-09-20T16:17:21.187Z,100708.56
2018-09-20T16:19:49.562Z,100706.06
2018-09-20T16:22:17.918Z,100699.80
2018-09-20T16:24:46.319Z,100690.39
2018-09-20T16:27:14.692Z,100691.40
2018-09-20T16:29:58.829Z,100682.15
2018-09-20T16:32:56.258Z,100680.47
2018-09-20T16:35:32.281Z,100677.43
2018-09-20T16:38:16.778Z,100670.06
2018-09-20T16:40:47.319Z,100665.62
2018-09-20T16:43:15.657Z,100657.41
2018-09-20T16:45:43.999Z,100665.06
2018-09-20T16:48:12.406Z,100659.31
2018-09-20T16:50:40.733Z,100658.91
2018-09-20T16:53:09.128Z,100654.47
2018-09-20T16:55:37.481Z,100639.00
2018-09-20T16:58:05.827Z,100642.33
2018-09-20T17:00:34.170Z,100635.48
2018-09-20T17:03:02.551Z,100638.88
2018-09-20T17:05:32.052Z,100634.16
2018-09-20T17:08:00.614Z,100635.12
2018-09-20T17:10:29.004Z,100634.98
2018-09-20T17:12:57.398Z,100631.88
2018-09-20T17:15:25.773Z,100629.55
2018-09-20T17:17:54.167Z,100629.06
2018-09-20T17:20:22.756Z,100630.75
2018-09-20T17:22:51.122Z,100623.02
2018-09-20T17:25:19.562Z,100622.31
2018-09-20T17:27:47.922Z,100618.09
2018-09-20T17:30:16.363Z,100615.41
2018-09-20T17:32:44.705Z,100618.07
2018-09-20T17:35:13.893Z,100620.48
2018-09-20T17:37:44.015Z,100612.69
2018-09-20T17:40:14.051Z,100608.68
2018-09-20T17:42:43.913Z,100610.34
2018-09-20T17:45:12.299Z,100606.91
2018-09-20T17:47:40.646Z,100606.17
2018-09-20T17:50:08.989Z,100604.33
2018-09-20T17:52:38.237Z,100602.55
2018-09-20T17:55:07.524Z,100599.63
2018-09-20T17:57:37.114Z,100600.51
2018-09-20T18:00:05.494Z,100602.73
2018-09-20T18:02:33.901Z,100601.46
2018-09-20T18:05:02.259Z,100595.56
2018-09-20T18:07:30.555Z,100590.31
2018-09-20T18:09:58.857Z,100585.22
2018-09-20T18:12:27.182Z,100586.34
2018-09-20T18:14:55.535Z,100589.89
2018-09-20T18:17:23.885Z,100586.75
2018-09-20T18:19:52.289Z,100586.28
2018-09-20T18:22:20.683Z,100592.30
2018-09-20T18:24:48.999Z,100589.13
2018-09-20T18:27:17.343Z,100586.83
2018-09-20T18:29:45.729Z,100590.95
2018-09-20T18:32:14.079Z,100586.55
2018-09-20T18:34:42.432Z,100588.32
2018-09-20T18:37:10.977Z,100587.88
2018-09-20T18:39:39.373Z,100583.97
2018-09-20T18:42:07.701Z,100582.05
2018-09-20T18:44:36.053Z,100577.81
2018-09-20T18:47:04.476Z,100575.05
2018-09-20T18:49:32.843Z,100584.83
2018-09-20T18:52:01.202Z,100579.95
2018-09-20T18:54:29.558Z,100587.64
2018-09-20T18:56:58.009Z,100578.95
2018-09-20T18:59:26.365Z,100578.47
2018-09-20T19:01:55.605Z,100580.98
2018-09-20T19:04:23.951Z,100586.27
2018-09-20T19:06:52.326Z,100579.00
2018-09-20T19:09:20.766Z,100572.98
2018-09-20T19:11:49.142Z,100581.84
2018-09-20T19:14:17.519Z,100585.33
2018-09-20T19:16:45.899Z,100577.34
2018-09-20T19:19:14.304Z,100575.55
2018-09-20T19:21:42.709Z,100571.34
2018-09-20T19:24:11.068Z,100568.57
2018-09-20T19:26:39.445Z,100565.50
2018-09-20T19:29:07.794Z,100560.39
2018-09-20T19:31:36.181Z,100566.86
2018-09-20T19:34:04.564Z,100563.50
2018-09-20T19:36:32.985Z,100567.22
2018-09-20T19:39:01.386Z,100559.81
2018-09-20T19:41:29.759Z,100561.67
2018-09-20T19:43:58.093Z,100555.22
2018-09-20T19:46:26.485Z,100552.97
2018-09-20T19:48:54.900Z,100548.05
2018-09-20T19:51:23.275Z,100540.16
2018-09-20T19:53:51.630Z,100542.73
2018-09-20T19:56:20.045Z,100542.11
2018-09-20T19:58:48.413Z,100543.34
2018-09-20T20:01:16.761Z,100541.60
2018-09-20T20:03:45.158Z,100537.52
2018-09-20T20:06:13.502Z,100541.53
2018-09-20T20:08:41.895Z,100534.23
2018-09-20T20:11:10.233Z,100532.09
2018-09-20T20:13:38.611Z,100529.94
2018-09-20T20:16:07.034Z,100523.78
2018-09-20T20:18:35.377Z,100526.94
2018-09-20T20:21:03.705Z,100528.50
2018-09-20T20:23:32.033Z,100520.69
2018-09-20T20:26:00.708Z,100519.05
2018-09-20T20:28:29.062Z,100514.02
2018-09-20T20:30:57.384Z,100517.11
2018-09-20T20:33:25.769Z,100508.26
2018-09-20T20:35:54.286Z,100501.58
2018-09-20T20:38:22.656Z,100498.50
2018-09-20T20:40:50.987Z,100491.83
2018-09-20T20:43:19.411Z,100489.91
2018-09-20T20:45:47.738Z,100489.58
2018-09-20T20:48:16.058Z,100484.05
2018-09-20T20:50:44.377Z,100480.75
2018-09-20T20:53:12.735Z,100479.42
2018-09-20T20:55:41.105Z,100475.64
2018-09-20T20:58:09.636Z,100477.17
2018-09-20T21:00:37.968Z,100477.10
2018-09-20T21:03:06.449Z,100475.56
2018-09-20T21:05:34.842Z,100479.98
2018-09-20T21:08:03.193Z,100477.21
2018-09-20T21:10:31.537Z,100478.11
2018-09-20T21:12:59.908Z,100468.70
2018-09-20T21:15:28.255Z,100458.13
2018-09-20T21:17:56.646Z,100459.16
2018-09-20T21:20:24.985Z,100460.09
2018-09-20T21:22:53.323Z,100457.02
2018-09-20T21:25:21.691Z,100451.07
2018-09-20T21:27:50.152Z,100446.99
2018-09-20T21:30:18.436Z,100447.93
2018-09-20T21:32:46.798Z,100441.67
2018-09-20T21:35:15.193Z,100442.09
2018-09-20T21:37:43.521Z,100439.02
2018-09-20T21:40:11.901Z,100436.55
2018-09-20T21:42:40.263Z,100432.55
2018-09-20T21:45:08.792Z,100425.58
2018-09-20T21:47:37.129Z,100428.25
2018-09-20T21:50:05.474Z,100420.25
2018-09-20T21:52:33.795Z,100423.73
2018-09-20T21:55:02.148Z,100417.98
2018-09-20T21:57:30.469Z,100407.94
2018-09-20T21:59:58.971Z,100406.91
2018-09-20T22:02:32.638Z,100399.20
2018-09-20T22:05:00.988Z,100393.86
2018-09-20T22:07:29.379Z,100383.00
2018-09-20T22:09:57.728Z,100385.45
2018-09-20T22:12:26.102Z,100378.26
2018-09-20T22:14:54.479Z,100374.36
2018-09-20T22:17:22.873Z,100371.28
2018-09-20T22:19:51.183Z,100371.45
2018-09-20T22:22:19.575Z,100375.36
2018-09-20T22:24:47.890Z,100368.56
2018-09-20T22:27:16.251Z,100361.38
2018-09-20T22:29:44.628Z,100360.33
2018-09-20T22:32:12.995Z,100353.37
2018-09-20T22:34:41.441Z,100352.98
2018-09-20T22:37:09.759Z,100342.73
2018-09-20T22:39:38.176Z,100343.15
2018-09-20T22:42:06.494Z,100326.03
2018-09-20T22:44:34.828Z,100323.05
2018-09-20T22:47:03.181Z,100323.56
2018-09-20T22:52:13.865Z,100312.38
2018-09-20T22:54:42.338Z,100305.70
2018-09-20T22:57:10.702Z,100306.33
2018-09-20T22:59:39.037Z,100299.53
2018-09-20T23:02:10.550Z,100299.82
2018-09-20T23:04:38.938Z,100293.38
2018-09-20T23:07:07.622Z,100290.33
2018-09-20T23:09:36.272Z,100291.04
2018-09-20T23:12:04.701Z,100281.83
2018-09-20T23:14:33.396Z,100283.59
2018-09-20T23:17:01.793Z,100279.49
2018-09-20T23:19:30.152Z,100284.92
2018-09-20T23:21:58.496Z,100279.45
2018-09-20T23:24:26.852Z,100272.80
2018-09-20T23:26:55.226Z,100278.75
2018-09-20T23:29:23.614Z,100272.27
2018-09-20T23:31:52.052Z,100269.47
2018-09-20T23:34:20.388Z,100262.67
2018-09-20T23:36:48.738Z,100263.34
2018-09-20T23:39:17.209Z,100260.91
2018-09-20T23:41:45.583Z,100263.73
2018-09-20T23:44:13.945Z,100259.09
2018-09-20T23:46:42.321Z,100250.23
2018-09-20T23:49:10.710Z,100246.81
2018-09-20T23:51:39.080Z,100248.23
2018-09-20T23:54:07.400Z,100251.00
2018-09-20T23:56:35.779Z,100246.34
2018-09-20T23:59:04.185Z,100243.14
